Time;durP1;ratioP1;P1;durP2;ratioP2;P2;SDS_P1;SDS_P2;PMS_P1;PMS_P2;Temp;Humidity;BMP_temperature;BMP_pressure;BME280_temperature;BME280_humidity;BME280_pressure;Samples;Min_cycle;Max_cycle;Signal;HPM_P1;HPM_P2
2024/03/11 00:00:24;;;;;;;6.15;3.70;;;;;;;10.76;82.06;99282.06;4954305;28;20050;-82
2024/03/11 00:03:29;;;;;;;14.30;7.55;;;;;;;10.69;83.05;99278.38;4977188;28;20069;-82
2024/03/11 00:06:35;;;;;;;23.38;11.10;;;;;;;10.97;81.92;99279.78;4977325;28;20054;-82
2024/03/11 00:09:44;;;;;;;23.50;10.65;;;;;;;10.92;81.48;99272.22;4977126;28;20066;-80
2024/03/11 00:12:53;;;;;;;31.65;15.63;;;;;;;11.01;81.62;99275.78;4988610;28;20516;-82
2024/03/11 00:16:01;;;;;;;33.17;15.75;;;;;;;11.12;80.99;99272.78;5003919;28;20053;-82
2024/03/11 00:19:08;;;;;;;28.00;14.45;;;;;;;11.09;81.06;99278.47;5015180;28;20048;-82
2024/03/11 00:22:12;;;;;;;6.03;3.67;;;;;;;10.54;82.84;99272.78;5004098;28;20065;-82
2024/03/11 00:25:17;;;;;;;8.15;4.55;;;;;;;10.65;82.96;99272.47;5015708;28;20053;-82
2024/03/11 00:28:23;;;;;;;14.80;7.00;;;;;;;10.76;82.02;99271.34;5015473;28;20065;-82
2024/03/11 00:31:29;;;;;;;10.35;5.68;;;;;;;10.94;81.60;99275.59;5003517;28;20053;-82
2024/03/11 00:34:33;;;;;;;10.57;5.53;;;;;;;10.91;81.41;99278.59;5015875;28;20504;-79
2024/03/11 00:37:38;;;;;;;8.52;3.92;;;;;;;10.68;81.66;99282.88;5015661;28;20504;-80
2024/03/11 00:40:42;;;;;;;7.63;3.63;;;;;;;10.55;82.29;99276.28;5015730;28;20048;-81
2024/03/11 00:43:47;;;;;;;7.38;3.05;;;;;;;10.87;81.55;99276.41;5003067;28;20049;-80
2024/03/11 00:46:51;;;;;;;11.27;3.38;;;;;;;10.92;81.05;99266.84;5015666;28;20049;-81
2024/03/11 00:49:56;;;;;;;6.30;2.53;;;;;;;10.90;80.80;99273.41;5015477;28;20049;-81
2024/03/11 00:53:01;;;;;;;10.10;3.67;;;;;;;10.66;81.85;99255.38;5015395;28;20045;-79
2024/03/11 00:56:06;;;;;;;10.65;3.08;;;;;;;10.59;81.34;99251.63;5015398;28;20057;-81
2024/03/11 00:59:11;;;;;;;6.45;2.83;;;;;;;10.20;82.69;99269.22;5015137;28;20049;-81
2024/03/11 01:02:16;;;;;;;7.72;2.60;;;;;;;10.17;83.46;99261.50;5015048;28;20065;-81
2024/03/11 01:05:21;;;;;;;7.60;2.70;;;;;;;10.42;82.63;99257.94;5014757;28;20398;-81
2024/03/11 01:08:29;;;;;;;8.75;2.45;;;;;;;10.44;82.12;99246.03;5002311;28;20053;-82
2024/03/11 01:11:33;;;;;;;7.75;3.33;;;;;;;10.43;82.03;99252.41;5002628;28;20076;-82
2024/03/11 01:14:37;;;;;;;7.13;2.92;;;;;;;10.70;81.90;99247.81;5014713;28;20049;-82
2024/03/11 01:17:42;;;;;;;10.10;3.45;;;;;;;10.65;81.33;99253.69;5015081;28;20068;-81
2024/03/11 01:20:49;;;;;;;12.60;3.63;;;;;;;9.95;83.71;99254.78;5015012;28;20053;-82
2024/03/11 01:23:53;;;;;;;9.68;3.60;;;;;;;9.99;83.97;99252.63;5014918;28;20053;-81
2024/03/11 01:26:58;;;;;;;9.52;3.72;;;;;;;10.27;83.14;99254.19;5014915;28;20053;-82
2024/03/11 01:30:03;;;;;;;8.10;2.85;;;;;;;10.26;82.99;99258.72;5014775;28;20052;-82
2024/03/11 01:33:10;;;;;;;6.15;2.53;;;;;;;10.55;82.17;99241.38;5014962;28;20057;-78
2024/03/11 01:36:15;;;;;;;6.90;2.58;;;;;;;10.40;82.21;99235.78;5002263;28;20053;-79
2024/03/11 01:39:25;;;;;;;7.10;1.98;;;;;;;9.91;83.50;99229.28;5014912;28;20072;-79
2024/03/11 01:42:29;;;;;;;6.03;1.92;;;;;;;10.01;83.56;99234.53;5014196;28;20496;-81
2024/03/11 01:45:35;;;;;;;5.85;2.42;;;;;;;9.99;83.62;99231.19;5014523;28;20056;-80
2024/03/11 01:48:40;;;;;;;5.70;1.73;;;;;;;9.81;83.40;99234.78;5013692;28;20061;-80
2024/03/11 01:51:45;;;;;;;3.53;1.40;;;;;;;9.81;84.01;99234.78;5014763;28;20468;-81
2024/03/11 01:54:51;;;;;;;8.38;2.10;;;;;;;10.00;83.25;99228.34;4991204;28;20057;-81
2024/03/11 01:57:58;;;;;;;4.40;1.38;;;;;;;10.13;82.77;99227.94;5014326;28;20065;-81
2024/03/11 02:01:03;;;;;;;5.90;2.00;;;;;;;9.88;83.69;99221.56;5014221;28;20384;-81
2024/03/11 02:04:07;;;;;;;8.93;1.60;;;;;;;10.02;83.14;99229.03;5014056;28;20392;-80
2024/03/11 02:07:15;;;;;;;3.60;1.27;;;;;;;10.24;82.37;99235.72;5002468;28;20052;-82
2024/03/11 02:10:19;;;;;;;4.85;1.58;;;;;;;10.34;81.96;99233.78;5002132;28;20053;-82
2024/03/11 02:13:24;;;;;;;7.22;1.70;;;;;;;10.08;82.54;99230.22;5012777;28;20052;-82
2024/03/11 02:16:28;;;;;;;6.95;1.70;;;;;;;10.15;82.68;99217.91;5014103;28;20056;-82
2024/03/11 02:19:37;;;;;;;6.00;2.05;;;;;;;10.21;82.03;99217.28;5013696;28;20500;-80
2024/03/11 02:22:47;;;;;;;5.95;1.58;;;;;;;10.16;82.02;99219.59;5014139;28;20045;-82
2024/03/11 02:25:54;;;;;;;6.38;2.53;;;;;;;9.97;82.18;99214.44;5013883;28;20385;-82
2024/03/11 02:29:00;;;;;;;6.40;1.60;;;;;;;9.69;83.32;99213.75;5014030;28;20045;-81
2024/03/11 02:32:05;;;;;;;11.70;1.65;;;;;;;9.81;83.34;99213.31;5014045;28;20061;-82
2024/03/11 02:35:10;;;;;;;7.28;1.75;;;;;;;9.83;83.87;99207.78;5012979;28;20093;-81
2024/03/11 02:38:14;;;;;;;4.95;1.40;;;;;;;9.70;83.82;99212.75;5013968;28;20073;-82
2024/03/11 02:41:19;;;;;;;5.80;1.70;;;;;;;9.94;83.12;99217.41;5013790;28;20057;-77
2024/03/11 02:44:23;;;;;;;4.28;0.95;;;;;;;10.13;82.17;99217.22;5013575;28;20056;-78
2024/03/11 02:47:28;;;;;;;2.30;1.20;;;;;;;10.17;82.02;99211.38;5013605;28;20045;-80
2024/03/11 02:50:33;;;;;;;10.60;1.50;;;;;;;10.24;81.41;99209.75;5012741;28;20061;-79
2024/03/11 02:53:36;;;;;;;9.23;1.85;;;;;;;9.94;81.87;99206.69;5001664;28;20053;-78
2024/03/11 02:56:41;;;;;;;4.35;1.30;;;;;;;9.68;82.41;99198.66;5001452;28;20048;-78
2024/03/11 02:59:45;;;;;;;3.42;1.17;;;;;;;9.70;82.05;99204.72;5001392;28;20452;-78
2024/03/11 03:02:51;;;;;;;5.00;1.10;;;;;;;9.58;82.84;99203.28;5013685;28;20499;-78
2024/03/11 03:05:56;;;;;;;3.55;1.33;;;;;;;9.80;81.66;99211.63;5013542;28;20080;-78
2024/03/11 03:09:00;;;;;;;7.28;1.83;;;;;;;9.67;81.95;99197.84;5013011;28;20053;-79
2024/03/11 03:12:09;;;;;;;3.47;1.20;;;;;;;9.54;82.68;99191.19;5013188;28;20069;-78
2024/03/11 03:15:13;;;;;;;4.55;1.13;;;;;;;9.43;83.23;99189.59;5013803;28;20397;-80
2024/03/11 03:18:18;;;;;;;3.53;0.90;;;;;;;9.79;81.56;99185.00;5001471;28;20049;-78
2024/03/11 03:21:22;;;;;;;4.78;1.27;;;;;;;9.78;80.95;99181.47;5013423;28;20045;-78
2024/03/11 03:24:26;;;;;;;2.55;1.00;;;;;;;9.72;81.30;99187.47;5012899;28;20053;-78
2024/03/11 03:27:30;;;;;;;5.30;0.85;;;;;;;9.31;82.15;99182.00;5013409;28;20496;-79
2024/03/11 03:30:35;;;;;;;3.10;0.77;;;;;;;9.32;83.10;99181.81;5013639;28;20065;-78
2024/03/11 03:33:39;;;;;;;3.42;1.00;;;;;;;9.27;82.74;99177.91;5017028;28;20036;-82
2024/03/11 03:36:43;;;;;;;4.03;0.93;;;;;;;9.42;82.44;99176.38;5001570;28;20069;-82
2024/03/11 03:39:48;;;;;;;6.85;0.90;;;;;;;9.53;81.19;99173.47;4997095;28;20057;-82
2024/03/11 03:42:54;;;;;;;6.28;1.08;;;;;;;9.36;81.04;99177.84;4997199;28;20386;-79
2024/03/11 03:46:02;;;;;;;6.47;1.10;;;;;;;9.87;79.45;99184.22;4995714;28;20049;-82
2024/03/11 03:49:07;;;;;;;8.40;1.08;;;;;;;10.10;78.09;99202.25;4997061;28;20065;-82
2024/03/11 03:52:11;;;;;;;3.53;0.60;;;;;;;10.11;77.84;99206.63;4997185;28;20049;-81
2024/03/11 03:55:16;;;;;;;4.15;0.95;;;;;;;10.02;78.44;99204.91;4997198;28;20393;-81
2024/03/11 03:58:21;;;;;;;2.67;0.70;;;;;;;10.03;78.26;99206.59;4985181;28;20390;-79
2024/03/11 04:01:26;;;;;;;4.35;0.90;;;;;;;10.06;78.29;99208.09;4995780;28;20472;-79
2024/03/11 04:04:31;;;;;;;2.22;0.70;;;;;;;10.10;77.35;99204.09;4997026;28;20049;-81
2024/03/11 04:07:39;;;;;;;6.70;0.80;;;;;;;10.06;77.59;99206.28;4996925;28;20053;-81
2024/03/11 04:10:43;;;;;;;3.80;1.08;;;;;;;9.98;77.47;99206.22;4996751;28;20053;-81
2024/03/11 04:13:49;;;;;;;3.95;0.95;;;;;;;9.93;78.00;99205.00;5016422;28;20045;-82
2024/03/11 04:16:54;;;;;;;3.60;0.70;;;;;;;9.78;77.75;99210.94;5016079;28;20045;-81
2024/03/11 04:19:58;;;;;;;6.65;1.15;;;;;;;9.68;78.36;99220.09;5016222;28;20053;-81
2024/03/11 04:23:07;;;;;;;3.42;0.90;;;;;;;9.70;77.75;99218.13;5016252;28;20088;-81
2024/03/11 04:26:11;;;;;;;4.60;1.25;;;;;;;9.56;78.24;99205.25;5016108;28;20052;-81
2024/03/11 04:29:16;;;;;;;5.32;1.00;;;;;;;9.60;78.50;99202.09;5016119;28;20056;-81
2024/03/11 04:32:24;;;;;;;2.55;0.93;;;;;;;9.62;78.55;99202.81;5016173;28;20045;-82
2024/03/11 04:35:30;;;;;;;3.88;0.85;;;;;;;9.68;77.99;99212.03;5015979;28;20069;-82
2024/03/11 04:38:36;;;;;;;4.80;1.33;;;;;;;9.54;78.71;99212.63;5016034;28;20049;-81
2024/03/11 04:41:44;;;;;;;3.10;0.65;;;;;;;9.55;77.95;99217.84;5015857;28;20053;-81
2024/03/11 04:44:49;;;;;;;5.03;0.95;;;;;;;9.57;78.49;99218.53;5014816;28;20050;-81
2024/03/11 04:47:57;;;;;;;2.92;1.00;;;;;;;9.46;78.90;99217.91;5015751;28;20492;-80
2024/03/11 04:51:04;;;;;;;4.20;0.95;;;;;;;9.48;79.02;99224.78;5015520;28;20053;-81
2024/03/11 04:54:09;;;;;;;5.70;1.42;;;;;;;9.60;78.71;99228.91;5015599;28;20114;-81
2024/03/11 04:57:13;;;;;;;6.25;1.85;;;;;;;9.58;78.92;99230.09;5015349;28;20045;-81
2024/03/11 05:00:18;;;;;;;4.60;2.47;;;;;;;9.67;79.42;99242.53;5015174;28;20401;-82
2024/03/11 05:03:22;;;;;;;6.25;3.30;;;;;;;9.51;81.08;99243.25;5015422;28;20053;-80
2024/03/11 05:06:27;;;;;;;4.60;2.83;;;;;;;9.40;80.05;99226.56;5014980;28;20060;-81
2024/03/11 05:09:31;;;;;;;4.63;2.58;;;;;;;9.27;81.30;99245.72;5015233;28;20053;-80
2024/03/11 05:12:36;;;;;;;13.45;2.75;;;;;;;9.07;81.75;99246.84;5014755;28;20121;-81
2024/03/11 05:15:47;;;;;;;5.13;2.75;;;;;;;9.24;81.31;99243.34;5014923;28;20048;-81
2024/03/11 05:18:52;;;;;;;14.88;4.88;;;;;;;9.31;81.20;99243.59;5014056;28;20053;-81
2024/03/11 05:21:56;;;;;;;10.30;5.25;;;;;;;9.24;81.72;99253.19;5015138;28;20049;-81
2024/03/11 05:25:01;;;;;;;6.53;4.40;;;;;;;9.28;81.29;99246.56;5014945;28;20060;-81
2024/03/11 05:28:05;;;;;;;9.20;4.20;;;;;;;9.33;80.63;99250.47;5015012;28;20052;-81
2024/03/11 05:31:11;;;;;;;6.57;3.13;;;;;;;9.14;80.30;99250.59;5014923;28;20048;-80
2024/03/11 05:34:15;;;;;;;6.38;3.17;;;;;;;9.01;80.78;99242.94;5014972;28;20396;-80
2024/03/11 05:37:22;;;;;;;10.70;3.97;;;;;;;8.90;81.63;99248.53;5014624;28;20076;-81
2024/03/11 05:40:27;;;;;;;7.20;3.05;;;;;;;8.72;81.91;99254.81;5014883;28;20393;-81
2024/03/11 05:43:35;;;;;;;12.02;3.53;;;;;;;8.71;82.44;99251.31;5014480;28;20096;-79
2024/03/11 05:46:40;;;;;;;5.60;3.58;;;;;;;8.59;82.17;99251.69;5014393;28;20053;-81
2024/03/11 05:49:44;;;;;;;5.35;3.75;;;;;;;8.74;81.99;99252.88;5014205;28;20060;-80
2024/03/11 05:52:49;;;;;;;4.97;3.63;;;;;;;8.72;82.34;99253.00;5013066;28;20401;-81
2024/03/11 05:55:54;;;;;;;5.45;3.47;;;;;;;8.79;81.93;99263.97;5002492;28;20053;-80
2024/03/11 05:58:59;;;;;;;5.38;3.72;;;;;;;8.93;82.14;99268.78;5014423;28;20041;-80
2024/03/11 06:02:03;;;;;;;5.60;3.85;;;;;;;9.01;81.59;99279.59;5014368;28;20045;-78
2024/03/11 06:05:08;;;;;;;7.03;3.38;;;;;;;9.12;81.48;99274.00;5014058;28;20049;-82
2024/03/11 06:08:13;;;;;;;6.47;3.58;;;;;;;9.24;81.43;99282.66;5014334;28;20045;-80
2024/03/11 06:11:17;;;;;;;5.18;3.22;;;;;;;9.11;81.94;99281.19;5014052;28;20045;-81
2024/03/11 06:14:22;;;;;;;12.02;4.05;;;;;;;9.24;80.69;99286.16;5014183;28;20049;-80
2024/03/11 06:17:29;;;;;;;4.57;3.03;;;;;;;9.44;80.28;99292.22;5001851;28;20061;-82
2024/03/11 06:20:34;;;;;;;4.93;2.28;;;;;;;9.38;78.36;99307.06;5013879;28;20053;-81
2024/03/11 06:23:38;;;;;;;5.03;2.47;;;;;;;9.33;79.02;99312.06;5014084;28;20053;-79
2024/03/11 06:26:46;;;;;;;6.22;2.70;;;;;;;9.36;78.27;99317.09;5014052;28;20060;-82
2024/03/11 06:29:50;;;;;;;6.95;2.92;;;;;;;9.44;78.15;99319.00;5013224;28;20061;-81
2024/03/11 06:32:55;;;;;;;6.38;3.20;;;;;;;9.87;77.85;99324.44;5014258;28;20049;-81
2024/03/11 06:35:59;;;;;;;5.63;2.75;;;;;;;10.31;77.00;99320.75;5014068;28;20396;-80
2024/03/11 06:39:03;;;;;;;6.93;2.50;;;;;;;10.89;72.93;99331.59;5014600;28;20053;-82
2024/03/11 06:42:09;;;;;;;8.30;1.92;;;;;;;11.43;70.93;99332.94;5014421;28;20053;-81
2024/03/11 06:45:15;;;;;;;5.60;2.40;;;;;;;11.83;70.10;99326.81;5002078;28;20057;-81
2024/03/11 06:48:20;;;;;;;4.72;1.52;;;;;;;12.58;67.13;99335.47;5013937;28;20053;-81
2024/03/11 06:51:25;;;;;;;5.70;2.00;;;;;;;12.84;64.96;99344.13;5014133;28;20053;-82
2024/03/11 06:54:30;;;;;;;6.03;2.70;;;;;;;13.60;63.21;99331.66;5002057;28;20501;-80
2024/03/11 06:57:34;;;;;;;9.20;4.63;;;;;;;14.31;60.64;99334.00;5013870;28;20049;-80
2024/03/11 07:00:39;;;;;;;8.57;3.45;;;;;;;14.97;58.54;99333.09;5013882;28;20053;-84
2024/03/11 07:03:43;;;;;;;5.85;2.05;;;;;;;15.17;57.62;99337.91;5014044;28;20061;-79
2024/03/11 07:06:48;;;;;;;4.40;1.60;;;;;;;15.14;57.97;99343.69;5002385;28;20056;-81
2024/03/11 07:09:53;;;;;;;3.83;2.25;;;;;;;14.75;58.61;99346.69;4999716;28;20050;-81
2024/03/11 07:12:58;;;;;;;5.68;2.03;;;;;;;14.86;58.84;99338.97;4985481;28;20061;-80
2024/03/11 07:16:06;;;;;;;4.38;1.65;;;;;;;14.58;59.92;99343.34;4997998;28;20046;-78
2024/03/11 07:19:12;;;;;;;6.63;2.70;;;;;;;14.43;61.17;99350.59;4997667;28;20393;-78
2024/03/11 07:22:17;;;;;;;5.88;1.98;;;;;;;14.58;61.53;99348.75;4997761;28;20054;-78
2024/03/11 07:25:22;;;;;;;9.55;2.90;;;;;;;14.85;60.63;99350.81;4997201;28;20500;-76
2024/03/11 07:28:28;;;;;;;6.63;1.90;;;;;;;15.49;59.17;99351.03;4997891;28;20045;-79
2024/03/11 07:31:33;;;;;;;7.70;2.53;;;;;;;16.07;57.65;99353.53;4997708;28;20067;-78
2024/03/11 07:34:40;;;;;;;5.63;1.92;;;;;;;15.93;57.23;99351.72;5009961;28;20057;-82
2024/03/11 07:37:44;;;;;;;4.57;1.60;;;;;;;15.91;57.20;99351.09;5016465;28;20389;-87
2024/03/11 07:40:51;;;;;;;5.35;1.77;;;;;;;16.07;56.94;99358.13;5016918;28;20061;-87
2024/03/11 07:43:56;;;;;;;6.60;1.65;;;;;;;16.70;55.83;99366.16;5017073;28;20048;-81
2024/03/11 07:47:00;;;;;;;2.53;1.30;;;;;;;17.46;54.00;99356.97;5015557;28;20057;-82
2024/03/11 07:50:05;;;;;;;4.40;2.10;;;;;;;18.58;50.92;99355.34;5014657;28;20049;-79
2024/03/11 07:53:13;;;;;;;5.97;2.40;;;;;;;19.33;48.75;99365.63;5015571;28;20054;-79
2024/03/11 07:56:19;;;;;;;7.53;2.60;;;;;;;20.82;46.21;99372.28;5015779;28;20049;-78
2024/03/11 07:59:23;;;;;;;7.07;3.30;;;;;;;21.29;44.72;99360.69;5016154;28;20397;-82
2024/03/11 08:02:28;;;;;;;6.00;3.00;;;;;;;23.23;40.63;99350.72;5024007;28;20056;-81
2024/03/11 08:05:34;;;;;;;4.80;2.75;;;;;;;25.60;35.47;99349.44;5027937;28;20088;-80
2024/03/11 08:08:38;;;;;;;7.47;4.20;;;;;;;27.50;32.69;99351.44;5020732;28;20061;-81
2024/03/11 08:11:43;;;;;;;4.57;3.15;;;;;;;29.02;30.80;99344.22;5016497;28;20061;-81
2024/03/11 08:14:49;;;;;;;6.47;2.97;;;;;;;30.81;28.58;99351.06;5015861;28;20045;-80
2024/03/11 08:17:55;;;;;;;3.42;2.60;;;;;;;30.89;28.09;99349.63;5015316;28;20056;-82
2024/03/11 08:21:00;;;;;;;4.95;3.08;;;;;;;32.05;26.29;99348.31;5016311;28;20496;-81
2024/03/11 08:24:06;;;;;;;4.93;3.15;;;;;;;32.55;25.74;99352.31;5016216;28;20057;-82
2024/03/11 08:27:10;;;;;;;5.03;3.38;;;;;;;32.37;26.73;99350.38;5016074;28;20077;-82
2024/03/11 08:30:15;;;;;;;5.22;3.13;;;;;;;32.83;25.21;99356.03;5015987;28;20053;-81
2024/03/11 08:33:20;;;;;;;4.90;3.40;;;;;;;32.72;25.33;99358.16;5014965;28;20053;-82
2024/03/11 08:36:25;;;;;;;4.10;3.20;;;;;;;32.98;25.76;99367.72;5016126;28;20053;-82
2024/03/11 08:39:30;;;;;;;4.53;3.95;;;;;;;32.31;26.04;99357.97;5015795;28;20052;-81
2024/03/11 08:42:38;;;;;;;7.57;4.90;;;;;;;33.15;25.74;99373.56;5015841;28;20052;-81
2024/03/11 08:45:43;;;;;;;8.07;6.10;;;;;;;31.96;27.11;99359.25;5016151;28;20049;-81
2024/03/11 08:48:49;;;;;;;6.93;5.50;;;;;;;32.36;25.65;99366.22;5015625;28;20496;-80
2024/03/11 08:51:54;;;;;;;10.07;6.43;;;;;;;31.96;27.33;99362.03;5015734;28;20041;-82
2024/03/11 08:54:58;;;;;;;9.40;7.43;;;;;;;32.77;26.25;99361.69;5015537;28;20049;-83
2024/03/11 08:58:06;;;;;;;8.77;6.90;;;;;;;32.42;26.17;99356.66;5015563;28;20049;-82
2024/03/11 09:01:11;;;;;;;10.10;7.13;;;;;;;32.24;26.19;99356.69;5015407;28;20045;-82
2024/03/11 09:04:16;;;;;;;10.02;8.93;;;;;;;31.63;26.62;99353.88;5017262;28;20390;-83
2024/03/11 09:07:21;;;;;;;8.82;7.82;;;;;;;27.86;31.24;99351.53;5015089;28;20508;-84
2024/03/11 09:10:26;;;;;;;10.75;8.88;;;;;;;27.34;32.17;99352.41;5015345;28;20064;-84
2024/03/11 09:13:31;;;;;;;8.55;7.65;;;;;;;28.07;31.70;99356.06;5014699;28;20056;-83
2024/03/11 09:16:38;;;;;;;10.90;8.43;;;;;;;28.36;30.82;99362.72;5015459;28;20061;-82
2024/03/11 09:19:42;;;;;;;11.52;9.00;;;;;;;28.79;30.49;99364.13;5015218;28;20385;-83
2024/03/11 09:22:50;;;;;;;11.45;8.75;;;;;;;29.71;30.10;99373.91;5015004;28;20053;-83
2024/03/11 09:25:56;;;;;;;13.02;8.38;;;;;;;28.88;30.44;99370.78;5015138;28;20044;-83
2024/03/11 09:29:01;;;;;;;11.32;8.52;;;;;;;27.15;32.11;99367.72;5014424;28;20052;-83
2024/03/11 09:32:05;;;;;;;11.00;9.13;;;;;;;25.58;35.85;99370.00;5014354;28;20121;-83
2024/03/11 09:35:16;;;;;;;9.77;8.75;;;;;;;27.35;33.01;99361.50;5014981;28;20053;-83
2024/03/11 09:38:20;;;;;;;11.95;9.35;;;;;;;27.55;32.41;99364.41;5003634;28;20073;-84
2024/03/11 09:41:26;;;;;;;10.70;9.43;;;;;;;26.79;33.10;99355.63;5001054;28;20053;-84
2024/03/11 09:44:30;;;;;;;11.45;9.43;;;;;;;24.64;36.57;99371.88;5023440;28;20040;-83
2024/03/11 09:47:36;;;;;;;10.52;9.13;;;;;;;24.14;38.67;99376.47;5016692;28;20077;-85
2024/03/11 09:50:42;;;;;;;12.40;10.32;;;;;;;23.35;40.38;99383.59;5014884;28;20476;-81
2024/03/11 09:53:54;;;;;;;12.50;10.00;;;;;;;22.82;40.88;99378.25;5014630;28;20516;-82
2024/03/11 09:56:59;;;;;;;12.48;10.25;;;;;;;22.58;41.94;99379.28;5013774;28;20061;-82
2024/03/11 10:00:12;;;;;;;12.90;10.50;;;;;;;22.34;43.10;99383.88;5014541;28;20050;-82
2024/03/11 10:03:21;;;;;;;14.00;10.07;;;;;;;22.17;43.42;99373.84;5003104;28;20038;-81
2024/03/11 10:06:30;;;;;;;14.15;12.07;;;;;;;21.60;45.46;99377.97;5001954;28;20041;-80
2024/03/11 10:09:44;;;;;;;13.60;11.70;;;;;;;20.72;47.32;99371.94;4990865;28;20053;-80
2024/03/11 10:12:52;;;;;;;14.73;11.73;;;;;;;19.80;50.44;99371.75;5012847;28;20054;-79
2024/03/11 10:16:14;;;;;;;15.07;12.30;;;;;;;20.06;51.10;99366.16;5002202;28;20050;-80
2024/03/11 10:19:21;;;;;;;14.82;11.25;;;;;;;19.78;51.12;99365.66;4990794;28;20064;-82
2024/03/11 10:22:28;;;;;;;14.07;12.02;;;;;;;19.68;51.67;99379.75;5014243;28;20060;-84
2024/03/11 10:25:35;;;;;;;17.88;11.63;;;;;;;19.39;52.54;99372.13;5014096;28;20049;-81
2024/03/11 10:28:39;;;;;;;18.10;12.40;;;;;;;19.48;52.64;99372.75;5014167;28;20065;-81
2024/03/11 10:31:47;;;;;;;16.67;13.82;;;;;;;19.04;53.96;99381.63;5014065;28;20496;-84
2024/03/11 10:34:56;;;;;;;17.20;11.85;;;;;;;18.81;55.33;99382.91;5013975;28;20469;-83
2024/03/11 10:38:13;;;;;;;21.67;13.98;;;;;;;18.80;55.04;99385.84;5014431;28;20057;-84
2024/03/11 10:41:21;;;;;;;21.17;12.77;;;;;;;19.13;54.85;99383.09;5014591;28;20399;-82
2024/03/11 10:44:29;;;;;;;18.40;13.40;;;;;;;19.20;53.71;99386.63;5018354;28;20053;-78
2024/03/11 10:47:34;;;;;;;17.55;11.85;;;;;;;19.36;54.02;99383.41;5017658;28;20053;-80
2024/03/11 10:50:39;;;;;;;16.35;12.40;;;;;;;19.40;54.42;99379.28;5017920;28;20401;-82
2024/03/11 10:53:44;;;;;;;17.85;12.75;;;;;;;19.02;55.63;99376.41;5018010;28;20046;-82
2024/03/11 10:56:55;;;;;;;16.70;12.88;;;;;;;19.05;57.43;99377.88;5017869;28;20042;-82
2024/03/11 11:00:09;;;;;;;18.90;12.77;;;;;;;18.68;58.52;99376.66;5018101;28;20160;-82
2024/03/11 11:03:14;;;;;;;18.48;12.00;;;;;;;18.18;57.82;99373.50;5016988;28;20399;-82
2024/03/11 11:06:27;;;;;;;17.88;12.25;;;;;;;17.92;60.21;99378.03;5017669;28;20061;-83
2024/03/11 11:09:38;;;;;;;17.02;12.70;;;;;;;17.99;60.86;99368.88;5016810;28;20049;-82
2024/03/11 11:12:42;;;;;;;17.58;12.70;;;;;;;18.01;59.59;99365.94;5016179;28;20045;-81
2024/03/11 11:15:50;;;;;;;14.73;11.27;;;;;;;18.02;59.00;99362.19;5019310;28;20057;-81
2024/03/11 11:18:56;;;;;;;18.50;12.60;;;;;;;18.05;60.19;99364.47;5017794;28;20053;-81
2024/03/11 11:22:06;;;;;;;14.27;10.40;;;;;;;17.94;59.62;99362.38;5026098;28;20488;-81
2024/03/11 11:25:33;;;;;;;17.83;12.38;;;;;;;17.81;60.92;99362.34;4988307;28;20054;-81
2024/03/11 11:28:37;;;;;;;15.20;12.65;;;;;;;18.07;61.80;99352.34;4966087;28;20050;-82
2024/03/11 11:31:59;;;;;;;15.95;10.77;;;;;;;18.07;60.72;99359.69;4965070;28;20047;-81
2024/03/11 11:35:06;;;;;;;19.25;11.63;;;;;;;18.02;59.44;99354.03;4975896;28;20047;-81
2024/03/11 11:38:23;;;;;;;15.73;10.68;;;;;;;17.92;58.89;99348.19;4976141;28;20066;-82
2024/03/11 11:41:34;;;;;;;14.85;10.60;;;;;;;17.63;60.31;99345.81;4953837;28;20043;-81
2024/03/11 11:44:40;;;;;;;15.60;11.50;;;;;;;17.87;60.41;99345.25;4965123;28;20061;-82
2024/03/11 11:47:45;;;;;;;17.20;10.98;;;;;;;17.94;60.59;99337.94;4975689;28;20049;-81
2024/03/11 11:50:51;;;;;;;20.02;11.10;;;;;;;17.60;60.44;99335.38;4964538;28;20050;-81
2024/03/11 11:53:56;;;;;;;15.10;10.63;;;;;;;17.30;61.23;99340.22;4975341;28;20035;-81
2024/03/11 11:57:12;;;;;;;15.48;10.30;;;;;;;17.40;61.79;99341.53;5017993;28;20054;-81
2024/03/11 12:00:17;;;;;;;14.38;10.68;;;;;;;17.71;61.69;99332.88;5016907;28;20052;-82
2024/03/11 12:03:30;;;;;;;14.05;10.10;;;;;;;18.04;60.89;99336.50;4993567;28;20044;-82
2024/03/11 12:06:35;;;;;;;13.18;8.80;;;;;;;18.21;59.60;99334.22;5004296;28;20045;-81
2024/03/11 12:09:50;;;;;;;13.32;8.90;;;;;;;18.42;58.96;99327.75;5016501;28;20080;-81
2024/03/11 12:12:55;;;;;;;12.10;8.77;;;;;;;18.53;58.64;99322.53;5004109;28;20045;-81
2024/03/11 12:16:08;;;;;;;11.30;8.18;;;;;;;18.27;57.71;99321.69;5016338;28;20064;-81
2024/03/11 12:19:12;;;;;;;10.57;7.57;;;;;;;18.28;57.59;99320.63;5016326;28;20052;-80
2024/03/11 12:22:20;;;;;;;12.13;8.43;;;;;;;18.18;58.57;99318.31;5016185;28;20507;-80
2024/03/11 12:25:28;;;;;;;12.85;7.97;;;;;;;18.04;58.56;99319.38;5016179;28;20049;-80
2024/03/11 12:28:33;;;;;;;12.38;8.18;;;;;;;18.00;58.84;99321.66;5015936;28;20057;-79
2024/03/11 12:31:39;;;;;;;9.68;8.05;;;;;;;17.89;59.48;99318.72;5015731;28;20045;-79
2024/03/11 12:34:44;;;;;;;12.75;7.30;;;;;;;17.96;58.77;99316.84;5015706;28;20084;-81
2024/03/11 12:37:49;;;;;;;10.27;7.38;;;;;;;17.95;59.23;99313.28;5015954;28;20064;-80
2024/03/11 12:40:57;;;;;;;14.23;8.20;;;;;;;18.15;59.20;99310.59;5003956;28;20118;-78
2024/03/11 12:44:18;;;;;;;12.05;6.75;;;;;;;18.20;56.24;99305.34;5015791;28;20076;-78
2024/03/11 12:47:23;;;;;;;9.18;6.80;;;;;;;18.29;56.51;99306.00;5016214;28;20504;-79
2024/03/11 12:50:29;;;;;;;10.60;7.53;;;;;;;18.29;56.87;99297.84;5014866;28;20053;-83
2024/03/11 12:53:33;;;;;;;9.20;7.22;;;;;;;18.45;58.43;99292.81;5015752;28;20131;-79
2024/03/11 12:56:39;;;;;;;11.70;7.95;;;;;;;18.53;58.02;99295.34;5003859;28;20052;-80
2024/03/11 12:59:59;;;;;;;9.13;6.50;;;;;;;18.72;57.83;99294.47;5017012;28;20048;-78
2024/03/11 13:03:08;;;;;;;8.45;6.95;;;;;;;18.66;57.45;99297.22;5025004;28;20057;-80
2024/03/11 13:06:18;;;;;;;11.55;6.55;;;;;;;18.96;54.93;99295.66;5013918;28;20052;-79
2024/03/11 13:09:27;;;;;;;7.07;5.70;;;;;;;19.04;54.67;99289.13;5015629;28;20381;-79
2024/03/11 13:12:32;;;;;;;12.80;7.00;;;;;;;18.90;54.40;99284.81;5015139;28;20053;-79
2024/03/11 13:15:37;;;;;;;10.10;6.22;;;;;;;19.11;55.09;99288.06;5015436;28;20056;-79
2024/03/11 13:18:44;;;;;;;9.32;6.30;;;;;;;18.96;55.55;99279.34;5002842;28;20103;-79
2024/03/11 13:21:50;;;;;;;9.18;7.15;;;;;;;18.76;56.95;99284.84;5015203;28;20048;-80
2024/03/11 13:25:09;;;;;;;10.25;6.85;;;;;;;18.67;58.08;99288.00;5015062;28;20048;-78
2024/03/11 13:28:14;;;;;;;11.43;7.05;;;;;;;18.78;58.18;99293.63;5014738;28;20057;-78
2024/03/11 13:31:18;;;;;;;14.70;7.13;;;;;;;18.85;56.88;99282.72;5002929;28;20049;-78
2024/03/11 13:34:24;;;;;;;10.63;6.38;;;;;;;18.81;56.22;99281.50;5015594;28;20045;-78
2024/03/11 13:37:30;;;;;;;12.75;6.68;;;;;;;18.96;55.63;99270.38;5015131;28;20053;-78
2024/03/11 13:40:35;;;;;;;10.10;6.63;;;;;;;19.17;56.02;99287.22;5013796;28;20109;-79
2024/03/11 13:43:41;;;;;;;11.82;6.32;;;;;;;19.17;55.68;99278.22;5014768;28;20049;-78
2024/03/11 13:46:48;;;;;;;10.60;5.95;;;;;;;19.27;54.66;99282.16;5014591;28;20065;-78
2024/03/11 13:49:53;;;;;;;8.43;5.88;;;;;;;19.14;54.56;99276.75;4991597;28;20385;-77
2024/03/11 13:52:58;;;;;;;7.68;4.97;;;;;;;19.28;53.88;99283.81;5014553;28;20520;-77
2024/03/11 13:56:05;;;;;;;7.18;5.00;;;;;;;19.23;53.62;99283.63;5002640;28;20061;-78
2024/03/11 13:59:09;;;;;;;9.02;5.95;;;;;;;19.21;53.90;99276.72;4992782;28;20389;-77
2024/03/11 14:02:13;;;;;;;11.52;5.80;;;;;;;19.21;54.18;99279.44;4992924;28;20532;-77
2024/03/11 14:05:19;;;;;;;8.98;5.47;;;;;;;19.28;54.17;99272.13;4992887;28;20437;-77
2024/03/11 14:08:23;;;;;;;8.55;5.93;;;;;;;19.38;54.68;99269.78;4981518;28;20053;-78
2024/03/11 14:11:28;;;;;;;7.30;5.20;;;;;;;19.30;54.52;99270.00;4993499;28;20053;-78
2024/03/11 14:14:34;;;;;;;10.23;4.65;;;;;;;19.41;53.43;99266.59;5012131;28;20052;-79
2024/03/11 14:17:39;;;;;;;8.63;4.90;;;;;;;19.36;52.91;99266.41;5001214;28;20056;-78
2024/03/11 14:20:47;;;;;;;6.68;4.10;;;;;;;19.33;52.51;99264.94;4973120;28;20058;-78
2024/03/11 14:23:52;;;;;;;9.27;5.15;;;;;;;19.16;54.17;99271.13;4973330;28;20050;-79
2024/03/11 14:26:57;;;;;;;6.32;4.65;;;;;;;19.26;54.80;99271.47;4973163;28;20066;-79
2024/03/11 14:30:03;;;;;;;13.10;6.13;;;;;;;18.87;56.87;99266.19;4962327;28;20140;-78
2024/03/11 14:33:08;;;;;;;8.73;5.75;;;;;;;18.78;56.38;99266.44;4973186;28;20058;-78